Indianapolis, Indiana
Traffic Map
Current Weather Conditions
Indianapolis, Indiana
Scattered Clouds
Scattered Clouds
17°
Feels Like: 17°
Wind Chill: 17° Ceiling: Unl
Heat Index: 17° Visibility: 10mi
Dew Point: Wind: 9mph
Humidity: 37% Direction: 90° (E)
Pressure: 30.23in Gusts: 0mph
Raw Report DataKIND 192354Z 09008KT 10SM FEW140 SCT250 17/02 A3023 RMK AO2 SLP237 T01720022 10200 20172 58005
Traffic Incident Summary
Active as of:
Severity:
Category:
InformationThere was an issue retrieving the traffic information for this location. Please try a different location or try again shortly.
Advertisements
At Last! Intellicast now available for iPhone and Android